sensor_id;sensor_type;location;lat;lon;timestamp;P1;durP1;ratioP1;P2;durP2;ratioP2
40781;SDS011;26493;51.938;7.626;2023-05-07T00:00:10;21.50;;;14.10;;
40781;SDS011;26493;51.938;7.626;2023-05-07T00:02:51;22.27;;;14.80;;
40781;SDS011;26493;51.938;7.626;2023-05-07T00:05:17;18.67;;;13.88;;
40781;SDS011;26493;51.938;7.626;2023-05-07T00:07:43;19.15;;;13.70;;
40781;SDS011;26493;51.938;7.626;2023-05-07T00:10:10;20.77;;;14.02;;
40781;SDS011;26493;51.938;7.626;2023-05-07T00:12:37;19.75;;;13.60;;
40781;SDS011;26493;51.938;7.626;2023-05-07T00:15:03;18.23;;;13.40;;
40781;SDS011;26493;51.938;7.626;2023-05-07T00:17:29;19.10;;;13.30;;
40781;SDS011;26493;51.938;7.626;2023-05-07T00:19:55;18.70;;;13.18;;
40781;SDS011;26493;51.938;7.626;2023-05-07T00:25:25;18.55;;;13.50;;
40781;SDS011;26493;51.938;7.626;2023-05-07T00:27:51;18.90;;;13.05;;
40781;SDS011;26493;51.938;7.626;2023-05-07T00:30:17;20.00;;;13.32;;
40781;SDS011;26493;51.938;7.626;2023-05-07T00:35:41;20.70;;;13.45;;
40781;SDS011;26493;51.938;7.626;2023-05-07T00:38:08;17.65;;;12.98;;
40781;SDS011;26493;51.938;7.626;2023-05-07T00:40:34;20.35;;;13.15;;
40781;SDS011;26493;51.938;7.626;2023-05-07T00:43:00;19.10;;;13.07;;
40781;SDS011;26493;51.938;7.626;2023-05-07T00:45:26;19.45;;;13.73;;
40781;SDS011;26493;51.938;7.626;2023-05-07T00:47:57;20.42;;;13.43;;
40781;SDS011;26493;51.938;7.626;2023-05-07T00:50:23;20.35;;;13.23;;
40781;SDS011;26493;51.938;7.626;2023-05-07T00:55:37;17.95;;;12.60;;
40781;SDS011;26493;51.938;7.626;2023-05-07T00:58:03;18.70;;;13.10;;
40781;SDS011;26493;51.938;7.626;2023-05-07T01:00:29;18.90;;;13.98;;
40781;SDS011;26493;51.938;7.626;2023-05-07T01:02:55;20.38;;;13.90;;
40781;SDS011;26493;51.938;7.626;2023-05-07T01:05:21;18.95;;;13.77;;
40781;SDS011;26493;51.938;7.626;2023-05-07T01:07:48;19.67;;;14.00;;
40781;SDS011;26493;51.938;7.626;2023-05-07T01:10:15;20.05;;;13.70;;
40781;SDS011;26493;51.938;7.626;2023-05-07T01:15:32;21.00;;;14.68;;
40781;SDS011;26493;51.938;7.626;2023-05-07T01:17:58;21.08;;;15.13;;
40781;SDS011;26493;51.938;7.626;2023-05-07T01:20:25;22.90;;;16.77;;
40781;SDS011;26493;51.938;7.626;2023-05-07T01:22:51;21.90;;;16.75;;
40781;SDS011;26493;51.938;7.626;2023-05-07T01:25:17;25.90;;;17.08;;
40781;SDS011;26493;51.938;7.626;2023-05-07T01:27:43;24.13;;;18.15;;
40781;SDS011;26493;51.938;7.626;2023-05-07T01:30:09;28.95;;;22.58;;
40781;SDS011;26493;51.938;7.626;2023-05-07T01:35:05;23.90;;;18.48;;
40781;SDS011;26493;51.938;7.626;2023-05-07T01:39:59;25.65;;;18.85;;
40781;SDS011;26493;51.938;7.626;2023-05-07T01:42:25;24.35;;;19.00;;
40781;SDS011;26493;51.938;7.626;2023-05-07T01:44:51;27.42;;;20.90;;
40781;SDS011;26493;51.938;7.626;2023-05-07T01:47:17;28.15;;;21.92;;
40781;SDS011;26493;51.938;7.626;2023-05-07T01:49:43;27.83;;;22.15;;
40781;SDS011;26493;51.938;7.626;2023-05-07T01:55:13;26.13;;;21.10;;
40781;SDS011;26493;51.938;7.626;2023-05-07T01:57:39;27.02;;;20.02;;
40781;SDS011;26493;51.938;7.626;2023-05-07T02:00:05;32.10;;;24.27;;
40781;SDS011;26493;51.938;7.626;2023-05-07T02:02:40;25.15;;;20.38;;
40781;SDS011;26493;51.938;7.626;2023-05-07T02:05:06;30.13;;;21.05;;
40781;SDS011;26493;51.938;7.626;2023-05-07T02:07:32;27.83;;;21.95;;
40781;SDS011;26493;51.938;7.626;2023-05-07T02:09:58;29.08;;;20.65;;
40781;SDS011;26493;51.938;7.626;2023-05-07T02:12:24;26.63;;;22.13;;
40781;SDS011;26493;51.938;7.626;2023-05-07T02:14:50;25.75;;;20.70;;
40781;SDS011;26493;51.938;7.626;2023-05-07T02:17:16;27.45;;;21.00;;
40781;SDS011;26493;51.938;7.626;2023-05-07T02:19:42;29.70;;;22.55;;
40781;SDS011;26493;51.938;7.626;2023-05-07T02:25:12;28.73;;;21.63;;
40781;SDS011;26493;51.938;7.626;2023-05-07T02:27:38;30.27;;;22.88;;
40781;SDS011;26493;51.938;7.626;2023-05-07T02:30:04;30.98;;;23.10;;
40781;SDS011;26493;51.938;7.626;2023-05-07T02:32:33;29.10;;;22.50;;
40781;SDS011;26493;51.938;7.626;2023-05-07T02:34:59;30.92;;;24.05;;
40781;SDS011;26493;51.938;7.626;2023-05-07T02:37:25;31.38;;;24.67;;
40781;SDS011;26493;51.938;7.626;2023-05-07T02:39:50;29.73;;;22.80;;
40781;SDS011;26493;51.938;7.626;2023-05-07T02:42:32;31.25;;;23.70;;
40781;SDS011;26493;51.938;7.626;2023-05-07T02:44:58;31.30;;;22.42;;
40781;SDS011;26493;51.938;7.626;2023-05-07T02:47:24;29.35;;;23.42;;
40781;SDS011;26493;51.938;7.626;2023-05-07T02:49:53;34.13;;;25.88;;
40781;SDS011;26493;51.938;7.626;2023-05-07T02:52:20;30.42;;;24.65;;
40781;SDS011;26493;51.938;7.626;2023-05-07T02:55:01;29.58;;;24.05;;
40781;SDS011;26493;51.938;7.626;2023-05-07T02:57:27;30.58;;;23.55;;
40781;SDS011;26493;51.938;7.626;2023-05-07T02:59:53;31.75;;;25.02;;
40781;SDS011;26493;51.938;7.626;2023-05-07T03:05:22;33.88;;;25.58;;
40781;SDS011;26493;51.938;7.626;2023-05-07T03:07:48;31.35;;;24.90;;
40781;SDS011;26493;51.938;7.626;2023-05-07T03:10:14;30.42;;;24.27;;
40781;SDS011;26493;51.938;7.626;2023-05-07T03:12:41;31.98;;;24.33;;
40781;SDS011;26493;51.938;7.626;2023-05-07T03:15:07;30.73;;;25.10;;
40781;SDS011;26493;51.938;7.626;2023-05-07T03:17:33;33.55;;;24.77;;
40781;SDS011;26493;51.938;7.626;2023-05-07T03:19:59;30.20;;;23.48;;
40781;SDS011;26493;51.938;7.626;2023-05-07T03:22:25;29.60;;;23.75;;
40781;SDS011;26493;51.938;7.626;2023-05-07T03:24:51;31.77;;;24.55;;
40781;SDS011;26493;51.938;7.626;2023-05-07T03:27:17;32.58;;;25.13;;
40781;SDS011;26493;51.938;7.626;2023-05-07T03:29:43;31.05;;;23.42;;
40781;SDS011;26493;51.938;7.626;2023-05-07T03:32:21;29.33;;;23.73;;
40781;SDS011;26493;51.938;7.626;2023-05-07T03:34:47;30.50;;;22.95;;
40781;SDS011;26493;51.938;7.626;2023-05-07T03:37:13;30.00;;;24.02;;
40781;SDS011;26493;51.938;7.626;2023-05-07T03:39:39;30.90;;;22.75;;
40781;SDS011;26493;51.938;7.626;2023-05-07T03:42:05;30.77;;;23.85;;
40781;SDS011;26493;51.938;7.626;2023-05-07T03:44:32;31.75;;;25.30;;
40781;SDS011;26493;51.938;7.626;2023-05-07T03:46:58;29.67;;;22.42;;
40781;SDS011;26493;51.938;7.626;2023-05-07T03:49:24;31.55;;;24.00;;
40781;SDS011;26493;51.938;7.626;2023-05-07T03:54:53;35.42;;;26.52;;
40781;SDS011;26493;51.938;7.626;2023-05-07T03:57:19;29.90;;;24.30;;
40781;SDS011;26493;51.938;7.626;2023-05-07T03:59:45;31.92;;;25.48;;
40781;SDS011;26493;51.938;7.626;2023-05-07T04:02:11;33.78;;;24.33;;
40781;SDS011;26493;51.938;7.626;2023-05-07T04:04:37;30.45;;;25.30;;
40781;SDS011;26493;51.938;7.626;2023-05-07T04:07:19;30.75;;;24.90;;
40781;SDS011;26493;51.938;7.626;2023-05-07T04:09:45;31.67;;;24.85;;
40781;SDS011;26493;51.938;7.626;2023-05-07T04:12:11;31.20;;;24.73;;
40781;SDS011;26493;51.938;7.626;2023-05-07T04:14:37;32.50;;;23.35;;
40781;SDS011;26493;51.938;7.626;2023-05-07T04:17:18;37.38;;;25.63;;
40781;SDS011;26493;51.938;7.626;2023-05-07T04:19:44;30.15;;;23.52;;
40781;SDS011;26493;51.938;7.626;2023-05-07T04:22:10;31.50;;;23.52;;
40781;SDS011;26493;51.938;7.626;2023-05-07T04:24:37;31.00;;;24.10;;
40781;SDS011;26493;51.938;7.626;2023-05-07T04:27:15;30.60;;;23.67;;
40781;SDS011;26493;51.938;7.626;2023-05-07T04:29:41;32.90;;;24.90;;
40781;SDS011;26493;51.938;7.626;2023-05-07T04:32:08;30.38;;;24.02;;
40781;SDS011;26493;51.938;7.626;2023-05-07T04:34:34;31.17;;;25.30;;
40781;SDS011;26493;51.938;7.626;2023-05-07T04:37:12;31.20;;;24.92;;
40781;SDS011;26493;51.938;7.626;2023-05-07T04:39:38;38.08;;;29.85;;
40781;SDS011;26493;51.938;7.626;2023-05-07T04:42:04;32.58;;;24.50;;
40781;SDS011;26493;51.938;7.626;2023-05-07T04:44:33;29.23;;;22.92;;
40781;SDS011;26493;51.938;7.626;2023-05-07T04:50:03;28.95;;;24.08;;
40781;SDS011;26493;51.938;7.626;2023-05-07T04:52:29;30.67;;;23.33;;
40781;SDS011;26493;51.938;7.626;2023-05-07T04:54:56;28.52;;;23.50;;
40781;SDS011;26493;51.938;7.626;2023-05-07T04:57:24;31.40;;;24.17;;
40781;SDS011;26493;51.938;7.626;2023-05-07T04:59:51;29.95;;;24.65;;
40781;SDS011;26493;51.938;7.626;2023-05-07T05:02:17;31.20;;;23.00;;
40781;SDS011;26493;51.938;7.626;2023-05-07T05:04:43;31.98;;;23.38;;
40781;SDS011;26493;51.938;7.626;2023-05-07T05:07:09;29.63;;;23.42;;
40781;SDS011;26493;51.938;7.626;2023-05-07T05:09:35;31.63;;;23.20;;
40781;SDS011;26493;51.938;7.626;2023-05-07T05:14:55;30.80;;;24.17;;
40781;SDS011;26493;51.938;7.626;2023-05-07T05:17:21;32.80;;;24.33;;
40781;SDS011;26493;51.938;7.626;2023-05-07T05:19:47;29.95;;;22.63;;
40781;SDS011;26493;51.938;7.626;2023-05-07T05:22:13;30.13;;;22.60;;
40781;SDS011;26493;51.938;7.626;2023-05-07T05:24:40;30.58;;;23.63;;
40781;SDS011;26493;51.938;7.626;2023-05-07T05:27:06;31.17;;;24.27;;
40781;SDS011;26493;51.938;7.626;2023-05-07T05:29:32;31.42;;;22.77;;
40781;SDS011;26493;51.938;7.626;2023-05-07T05:31:58;29.77;;;22.83;;
40781;SDS011;26493;51.938;7.626;2023-05-07T05:34:24;28.92;;;22.60;;
40781;SDS011;26493;51.938;7.626;2023-05-07T05:36:50;28.52;;;22.88;;
40781;SDS011;26493;51.938;7.626;2023-05-07T05:39:16;30.75;;;22.58;;
40781;SDS011;26493;51.938;7.626;2023-05-07T05:41:42;29.13;;;22.70;;
40781;SDS011;26493;51.938;7.626;2023-05-07T05:44:08;31.17;;;23.65;;
40781;SDS011;26493;51.938;7.626;2023-05-07T05:46:34;30.67;;;24.02;;
40781;SDS011;26493;51.938;7.626;2023-05-07T05:49:00;29.98;;;23.25;;
40781;SDS011;26493;51.938;7.626;2023-05-07T05:51:26;33.88;;;26.83;;
40781;SDS011;26493;51.938;7.626;2023-05-07T05:53:52;27.05;;;22.17;;
40781;SDS011;26493;51.938;7.626;2023-05-07T05:56:24;29.27;;;22.63;;
40781;SDS011;26493;51.938;7.626;2023-05-07T05:58:50;27.42;;;22.02;;
40781;SDS011;26493;51.938;7.626;2023-05-07T06:01:17;28.23;;;22.45;;
40781;SDS011;26493;51.938;7.626;2023-05-07T06:03:43;30.83;;;24.48;;
40781;SDS011;26493;51.938;7.626;2023-05-07T06:06:25;30.23;;;23.35;;
40781;SDS011;26493;51.938;7.626;2023-05-07T06:08:51;29.48;;;22.73;;
40781;SDS011;26493;51.938;7.626;2023-05-07T06:11:29;29.13;;;23.08;;
40781;SDS011;26493;51.938;7.626;2023-05-07T06:13:55;31.77;;;25.00;;
40781;SDS011;26493;51.938;7.626;2023-05-07T06:16:21;35.80;;;23.63;;
40781;SDS011;26493;51.938;7.626;2023-05-07T06:18:47;32.17;;;23.80;;
40781;SDS011;26493;51.938;7.626;2023-05-07T06:21:13;31.30;;;25.30;;
40781;SDS011;26493;51.938;7.626;2023-05-07T06:23:40;30.08;;;23.52;;
40781;SDS011;26493;51.938;7.626;2023-05-07T06:26:06;31.75;;;22.63;;
40781;SDS011;26493;51.938;7.626;2023-05-07T06:28:32;34.63;;;24.60;;
40781;SDS011;26493;51.938;7.626;2023-05-07T06:33:52;32.15;;;24.42;;
40781;SDS011;26493;51.938;7.626;2023-05-07T06:36:18;30.45;;;23.55;;
40781;SDS011;26493;51.938;7.626;2023-05-07T06:38:43;32.38;;;25.20;;
40781;SDS011;26493;51.938;7.626;2023-05-07T06:44:04;30.10;;;24.05;;
40781;SDS011;26493;51.938;7.626;2023-05-07T06:46:30;31.77;;;23.80;;
40781;SDS011;26493;51.938;7.626;2023-05-07T06:48:56;32.67;;;24.52;;
40781;SDS011;26493;51.938;7.626;2023-05-07T06:54:16;29.42;;;23.70;;
40781;SDS011;26493;51.938;7.626;2023-05-07T06:56:42;27.58;;;22.77;;
40781;SDS011;26493;51.938;7.626;2023-05-07T06:59:08;29.52;;;23.48;;
40781;SDS011;26493;51.938;7.626;2023-05-07T07:01:34;30.10;;;23.73;;
40781;SDS011;26493;51.938;7.626;2023-05-07T07:04:00;29.73;;;22.77;;
40781;SDS011;26493;51.938;7.626;2023-05-07T07:06:26;32.65;;;24.50;;
40781;SDS011;26493;51.938;7.626;2023-05-07T07:08:52;28.45;;;23.13;;
40781;SDS011;26493;51.938;7.626;2023-05-07T07:11:18;30.00;;;22.13;;
40781;SDS011;26493;51.938;7.626;2023-05-07T07:13:44;31.17;;;24.27;;
40781;SDS011;26493;51.938;7.626;2023-05-07T07:16:10;34.85;;;24.10;;
40781;SDS011;26493;51.938;7.626;2023-05-07T07:18:36;31.38;;;23.20;;
40781;SDS011;26493;51.938;7.626;2023-05-07T07:21:14;29.50;;;23.55;;
40781;SDS011;26493;51.938;7.626;2023-05-07T07:23:40;32.60;;;23.27;;
40781;SDS011;26493;51.938;7.626;2023-05-07T07:26:06;30.95;;;23.15;;
40781;SDS011;26493;51.938;7.626;2023-05-07T07:28:32;28.95;;;23.13;;
40781;SDS011;26493;51.938;7.626;2023-05-07T07:30:58;31.02;;;24.65;;
40781;SDS011;26493;51.938;7.626;2023-05-07T07:33:24;28.90;;;22.13;;
40781;SDS011;26493;51.938;7.626;2023-05-07T07:35:50;30.00;;;22.90;;
40781;SDS011;26493;51.938;7.626;2023-05-07T07:38:16;31.52;;;24.40;;
40781;SDS011;26493;51.938;7.626;2023-05-07T07:40:42;34.00;;;24.48;;
40781;SDS011;26493;51.938;7.626;2023-05-07T07:43:09;29.73;;;23.75;;
40781;SDS011;26493;51.938;7.626;2023-05-07T07:45:35;30.40;;;22.55;;
40781;SDS011;26493;51.938;7.626;2023-05-07T07:48:01;32.15;;;23.83;;
40781;SDS011;26493;51.938;7.626;2023-05-07T07:50:27;31.77;;;23.67;;
40781;SDS011;26493;51.938;7.626;2023-05-07T07:52:53;31.85;;;23.95;;
40781;SDS011;26493;51.938;7.626;2023-05-07T07:55:19;30.40;;;24.73;;
40781;SDS011;26493;51.938;7.626;2023-05-07T07:57:48;28.95;;;21.67;;
40781;SDS011;26493;51.938;7.626;2023-05-07T08:00:14;30.40;;;23.33;;
40781;SDS011;26493;51.938;7.626;2023-05-07T08:02:40;30.25;;;22.25;;
40781;SDS011;26493;51.938;7.626;2023-05-07T08:05:06;31.90;;;25.45;;
40781;SDS011;26493;51.938;7.626;2023-05-07T08:07:32;29.20;;;22.73;;
40781;SDS011;26493;51.938;7.626;2023-05-07T08:09:58;28.65;;;22.52;;
40781;SDS011;26493;51.938;7.626;2023-05-07T08:12:25;29.48;;;21.88;;
40781;SDS011;26493;51.938;7.626;2023-05-07T08:14:51;28.08;;;22.52;;
40781;SDS011;26493;51.938;7.626;2023-05-07T08:17:17;31.45;;;22.77;;
40781;SDS011;26493;51.938;7.626;2023-05-07T08:19:43;28.25;;;22.15;;
40781;SDS011;26493;51.938;7.626;2023-05-07T08:22:10;32.08;;;23.73;;
40781;SDS011;26493;51.938;7.626;2023-05-07T08:24:36;29.23;;;23.02;;
40781;SDS011;26493;51.938;7.626;2023-05-07T08:27:02;29.65;;;23.38;;
40781;SDS011;26493;51.938;7.626;2023-05-07T08:29:28;29.25;;;22.23;;
40781;SDS011;26493;51.938;7.626;2023-05-07T08:34:57;28.67;;;21.88;;
40781;SDS011;26493;51.938;7.626;2023-05-07T08:37:23;28.13;;;22.27;;
40781;SDS011;26493;51.938;7.626;2023-05-07T08:39:49;29.83;;;22.70;;
40781;SDS011;26493;51.938;7.626;2023-05-07T08:42:16;27.55;;;21.25;;
40781;SDS011;26493;51.938;7.626;2023-05-07T08:44:43;30.25;;;23.27;;
40781;SDS011;26493;51.938;7.626;2023-05-07T08:47:12;28.48;;;22.95;;
40781;SDS011;26493;51.938;7.626;2023-05-07T08:49:38;30.38;;;23.23;;
40781;SDS011;26493;51.938;7.626;2023-05-07T08:52:04;29.33;;;22.52;;
40781;SDS011;26493;51.938;7.626;2023-05-07T08:54:30;29.27;;;21.95;;
40781;SDS011;26493;51.938;7.626;2023-05-07T08:56:56;27.55;;;21.38;;
40781;SDS011;26493;51.938;7.626;2023-05-07T08:59:22;30.02;;;23.27;;
40781;SDS011;26493;51.938;7.626;2023-05-07T09:04:36;27.70;;;22.30;;
40781;SDS011;26493;51.938;7.626;2023-05-07T09:07:01;29.30;;;22.50;;
40781;SDS011;26493;51.938;7.626;2023-05-07T09:09:31;27.63;;;22.58;;
40781;SDS011;26493;51.938;7.626;2023-05-07T09:15:01;31.33;;;23.10;;
40781;SDS011;26493;51.938;7.626;2023-05-07T09:17:27;29.58;;;23.17;;
40781;SDS011;26493;51.938;7.626;2023-05-07T09:19:54;30.27;;;23.50;;
40781;SDS011;26493;51.938;7.626;2023-05-07T09:25:18;27.23;;;21.63;;
40781;SDS011;26493;51.938;7.626;2023-05-07T09:27:53;29.02;;;23.13;;
40781;SDS011;26493;51.938;7.626;2023-05-07T09:30:19;27.70;;;22.75;;
40781;SDS011;26493;51.938;7.626;2023-05-07T09:35:29;27.48;;;21.55;;
40781;SDS011;26493;51.938;7.626;2023-05-07T09:37:56;28.15;;;21.50;;
40781;SDS011;26493;51.938;7.626;2023-05-07T09:40:24;28.83;;;22.13;;
40781;SDS011;26493;51.938;7.626;2023-05-07T09:42:50;29.10;;;22.00;;
40781;SDS011;26493;51.938;7.626;2023-05-07T09:45:21;27.55;;;21.63;;
40781;SDS011;26493;51.938;7.626;2023-05-07T09:47:47;25.25;;;20.75;;
40781;SDS011;26493;51.938;7.626;2023-05-07T09:50:14;27.83;;;21.92;;
40781;SDS011;26493;51.938;7.626;2023-05-07T09:52:40;27.60;;;20.95;;
40781;SDS011;26493;51.938;7.626;2023-05-07T09:55:07;27.25;;;21.55;;
40781;SDS011;26493;51.938;7.626;2023-05-07T09:57:33;26.98;;;21.20;;
40781;SDS011;26493;51.938;7.626;2023-05-07T10:00:00;26.60;;;20.63;;
40781;SDS011;26493;51.938;7.626;2023-05-07T10:02:29;27.63;;;21.27;;
40781;SDS011;26493;51.938;7.626;2023-05-07T10:04:56;26.65;;;20.52;;
40781;SDS011;26493;51.938;7.626;2023-05-07T10:10:33;27.48;;;21.70;;
40781;SDS011;26493;51.938;7.626;2023-05-07T10:13:00;26.77;;;20.77;;
40781;SDS011;26493;51.938;7.626;2023-05-07T10:15:26;26.58;;;20.40;;
40781;SDS011;26493;51.938;7.626;2023-05-07T10:17:53;26.75;;;22.25;;
40781;SDS011;26493;51.938;7.626;2023-05-07T10:20:20;26.17;;;21.40;;
40781;SDS011;26493;51.938;7.626;2023-05-07T10:22:47;28.45;;;21.42;;
40781;SDS011;26493;51.938;7.626;2023-05-07T10:25:26;26.65;;;21.58;;
40781;SDS011;26493;51.938;7.626;2023-05-07T10:27:54;26.83;;;21.38;;
40781;SDS011;26493;51.938;7.626;2023-05-07T10:30:58;25.77;;;20.75;;
40781;SDS011;26493;51.938;7.626;2023-05-07T10:33:13;25.60;;;20.55;;
40781;SDS011;26493;51.938;7.626;2023-05-07T10:35:41;29.85;;;22.80;;
40781;SDS011;26493;51.938;7.626;2023-05-07T10:38:08;25.90;;;20.83;;
40781;SDS011;26493;51.938;7.626;2023-05-07T10:40:35;24.10;;;20.75;;
40781;SDS011;26493;51.938;7.626;2023-05-07T10:43:04;25.67;;;20.15;;
40781;SDS011;26493;51.938;7.626;2023-05-07T10:45:31;26.27;;;21.27;;
40781;SDS011;26493;51.938;7.626;2023-05-07T10:50:35;24.17;;;19.27;;
40781;SDS011;26493;51.938;7.626;2023-05-07T10:55:50;24.20;;;19.13;;
40781;SDS011;26493;51.938;7.626;2023-05-07T10:58:26;26.95;;;18.73;;
40781;SDS011;26493;51.938;7.626;2023-05-07T11:00:56;22.90;;;18.65;;
40781;SDS011;26493;51.938;7.626;2023-05-07T11:03:23;22.77;;;18.60;;
40781;SDS011;26493;51.938;7.626;2023-05-07T11:06:08;24.63;;;19.13;;
40781;SDS011;26493;51.938;7.626;2023-05-07T11:08:54;25.00;;;18.50;;
40781;SDS011;26493;51.938;7.626;2023-05-07T11:14:05;22.65;;;17.77;;
40781;SDS011;26493;51.938;7.626;2023-05-07T11:16:31;23.25;;;17.77;;
40781;SDS011;26493;51.938;7.626;2023-05-07T11:18:58;24.50;;;17.83;;
40781;SDS011;26493;51.938;7.626;2023-05-07T11:21:43;23.02;;;17.95;;
40781;SDS011;26493;51.938;7.626;2023-05-07T11:24:09;23.63;;;18.23;;
40781;SDS011;26493;51.938;7.626;2023-05-07T11:26:42;22.10;;;18.13;;
40781;SDS011;26493;51.938;7.626;2023-05-07T11:29:16;21.42;;;18.08;;
40781;SDS011;26493;51.938;7.626;2023-05-07T11:31:43;23.95;;;19.60;;
40781;SDS011;26493;51.938;7.626;2023-05-07T11:34:09;23.58;;;19.00;;
40781;SDS011;26493;51.938;7.626;2023-05-07T11:36:35;22.98;;;18.42;;
40781;SDS011;26493;51.938;7.626;2023-05-07T11:39:01;21.27;;;17.98;;
40781;SDS011;26493;51.938;7.626;2023-05-07T11:41:36;23.60;;;17.30;;
40781;SDS011;26493;51.938;7.626;2023-05-07T11:44:03;21.92;;;18.23;;
40781;SDS011;26493;51.938;7.626;2023-05-07T11:46:30;21.60;;;17.75;;
40781;SDS011;26493;51.938;7.626;2023-05-07T11:48:56;21.13;;;17.58;;
40781;SDS011;26493;51.938;7.626;2023-05-07T11:51:23;21.00;;;17.10;;
40781;SDS011;26493;51.938;7.626;2023-05-07T11:53:50;22.30;;;18.70;;
40781;SDS011;26493;51.938;7.626;2023-05-07T11:56:17;24.15;;;20.80;;
40781;SDS011;26493;51.938;7.626;2023-05-07T11:58:44;19.98;;;16.63;;
40781;SDS011;26493;51.938;7.626;2023-05-07T12:03:58;19.25;;;16.13;;
40781;SDS011;26493;51.938;7.626;2023-05-07T12:06:24;20.10;;;16.58;;
40781;SDS011;26493;51.938;7.626;2023-05-07T12:08:50;19.65;;;16.13;;
40781;SDS011;26493;51.938;7.626;2023-05-07T12:11:21;20.08;;;15.82;;
40781;SDS011;26493;51.938;7.626;2023-05-07T12:13:47;21.15;;;15.52;;
40781;SDS011;26493;51.938;7.626;2023-05-07T12:21:46;18.80;;;16.30;;
40781;SDS011;26493;51.938;7.626;2023-05-07T12:24:12;20.75;;;17.85;;
40781;SDS011;26493;51.938;7.626;2023-05-07T12:29:44;19.48;;;16.70;;
40781;SDS011;26493;51.938;7.626;2023-05-07T12:32:14;20.15;;;16.83;;
40781;SDS011;26493;51.938;7.626;2023-05-07T12:34:41;20.58;;;17.48;;
40781;SDS011;26493;51.938;7.626;2023-05-07T12:40:10;20.80;;;16.10;;
40781;SDS011;26493;51.938;7.626;2023-05-07T12:42:37;22.05;;;16.42;;
40781;SDS011;26493;51.938;7.626;2023-05-07T12:45:10;20.13;;;16.75;;
40781;SDS011;26493;51.938;7.626;2023-05-07T12:50:40;19.88;;;17.27;;
40781;SDS011;26493;51.938;7.626;2023-05-07T12:53:06;20.10;;;16.92;;
40781;SDS011;26493;51.938;7.626;2023-05-07T12:55:40;19.88;;;16.77;;
40781;SDS011;26493;51.938;7.626;2023-05-07T12:58:06;19.40;;;16.92;;
40781;SDS011;26493;51.938;7.626;2023-05-07T13:00:41;20.58;;;17.33;;
40781;SDS011;26493;51.938;7.626;2023-05-07T13:03:08;18.80;;;16.67;;
40781;SDS011;26493;51.938;7.626;2023-05-07T13:05:34;20.23;;;17.60;;
40781;SDS011;26493;51.938;7.626;2023-05-07T13:08:00;19.80;;;17.25;;
40781;SDS011;26493;51.938;7.626;2023-05-07T13:10:26;19.13;;;17.02;;
40781;SDS011;26493;51.938;7.626;2023-05-07T13:12:53;20.23;;;16.58;;
40781;SDS011;26493;51.938;7.626;2023-05-07T13:15:19;19.33;;;16.30;;
40781;SDS011;26493;51.938;7.626;2023-05-07T13:17:45;20.30;;;16.58;;
40781;SDS011;26493;51.938;7.626;2023-05-07T13:20:11;19.17;;;16.23;;
40781;SDS011;26493;51.938;7.626;2023-05-07T13:22:37;21.08;;;16.38;;
40781;SDS011;26493;51.938;7.626;2023-05-07T13:25:04;19.27;;;16.75;;
40781;SDS011;26493;51.938;7.626;2023-05-07T13:30:21;22.00;;;15.60;;
40781;SDS011;26493;51.938;7.626;2023-05-07T13:32:47;21.30;;;16.60;;
40781;SDS011;26493;51.938;7.626;2023-05-07T13:35:13;20.30;;;16.90;;
40781;SDS011;26493;51.938;7.626;2023-05-07T13:37:39;20.05;;;16.63;;
40781;SDS011;26493;51.938;7.626;2023-05-07T13:40:05;20.75;;;16.40;;
40781;SDS011;26493;51.938;7.626;2023-05-07T13:42:32;20.27;;;16.45;;
40781;SDS011;26493;51.938;7.626;2023-05-07T13:44:58;19.70;;;16.05;;
40781;SDS011;26493;51.938;7.626;2023-05-07T13:47:25;19.00;;;15.57;;
40781;SDS011;26493;51.938;7.626;2023-05-07T13:49:51;22.05;;;16.52;;
40781;SDS011;26493;51.938;7.626;2023-05-07T13:52:17;20.42;;;16.23;;
40781;SDS011;26493;51.938;7.626;2023-05-07T13:54:43;20.88;;;17.65;;
40781;SDS011;26493;51.938;7.626;2023-05-07T13:57:09;20.27;;;17.27;;
40781;SDS011;26493;51.938;7.626;2023-05-07T13:59:35;20.58;;;16.85;;
40781;SDS011;26493;51.938;7.626;2023-05-07T14:05:04;19.85;;;16.83;;
40781;SDS011;26493;51.938;7.626;2023-05-07T14:07:30;20.05;;;16.33;;
40781;SDS011;26493;51.938;7.626;2023-05-07T14:09:57;20.92;;;16.63;;
40781;SDS011;26493;51.938;7.626;2023-05-07T14:15:26;19.17;;;15.82;;
40781;SDS011;26493;51.938;7.626;2023-05-07T14:17:52;18.88;;;15.40;;
40781;SDS011;26493;51.938;7.626;2023-05-07T14:20:18;19.17;;;15.73;;
40781;SDS011;26493;51.938;7.626;2023-05-07T14:22:44;18.95;;;15.82;;
40781;SDS011;26493;51.938;7.626;2023-05-07T14:25:10;18.63;;;15.15;;
40781;SDS011;26493;51.938;7.626;2023-05-07T14:27:36;18.55;;;15.43;;
40781;SDS011;26493;51.938;7.626;2023-05-07T14:30:03;19.10;;;15.00;;
40781;SDS011;26493;51.938;7.626;2023-05-07T14:35:32;19.75;;;15.50;;
40781;SDS011;26493;51.938;7.626;2023-05-07T14:37:58;20.00;;;15.18;;
40781;SDS011;26493;51.938;7.626;2023-05-07T14:40:24;19.38;;;15.13;;
40781;SDS011;26493;51.938;7.626;2023-05-07T14:42:50;19.98;;;14.75;;
40781;SDS011;26493;51.938;7.626;2023-05-07T14:45:16;20.33;;;16.30;;
40781;SDS011;26493;51.938;7.626;2023-05-07T14:47:42;20.85;;;15.88;;
40781;SDS011;26493;51.938;7.626;2023-05-07T14:50:08;19.55;;;15.80;;
40781;SDS011;26493;51.938;7.626;2023-05-07T14:52:47;20.20;;;15.63;;
40781;SDS011;26493;51.938;7.626;2023-05-07T14:55:12;22.48;;;15.68;;
40781;SDS011;26493;51.938;7.626;2023-05-07T14:57:38;18.77;;;14.90;;
40781;SDS011;26493;51.938;7.626;2023-05-07T15:00:05;19.05;;;14.93;;
40781;SDS011;26493;51.938;7.626;2023-05-07T15:02:32;20.17;;;16.45;;
40781;SDS011;26493;51.938;7.626;2023-05-07T15:04:58;20.85;;;16.83;;
40781;SDS011;26493;51.938;7.626;2023-05-07T15:07:24;19.23;;;15.25;;
40781;SDS011;26493;51.938;7.626;2023-05-07T15:09:50;21.33;;;14.40;;
40781;SDS011;26493;51.938;7.626;2023-05-07T15:12:16;18.90;;;13.80;;
40781;SDS011;26493;51.938;7.626;2023-05-07T15:14:42;19.23;;;14.77;;
40781;SDS011;26493;51.938;7.626;2023-05-07T15:17:08;21.25;;;14.90;;
40781;SDS011;26493;51.938;7.626;2023-05-07T15:19:34;19.92;;;14.93;;
40781;SDS011;26493;51.938;7.626;2023-05-07T15:22:00;18.52;;;14.38;;
40781;SDS011;26493;51.938;7.626;2023-05-07T15:24:28;20.95;;;14.90;;
40781;SDS011;26493;51.938;7.626;2023-05-07T15:26:54;18.30;;;13.68;;
40781;SDS011;26493;51.938;7.626;2023-05-07T15:29:20;19.38;;;14.68;;
40781;SDS011;26493;51.938;7.626;2023-05-07T15:31:46;18.80;;;13.68;;
40781;SDS011;26493;51.938;7.626;2023-05-07T15:34:12;22.27;;;14.27;;
40781;SDS011;26493;51.938;7.626;2023-05-07T15:36:40;17.53;;;13.43;;
40781;SDS011;26493;51.938;7.626;2023-05-07T15:39:06;18.67;;;13.80;;
40781;SDS011;26493;51.938;7.626;2023-05-07T15:41:32;17.10;;;12.30;;
40781;SDS011;26493;51.938;7.626;2023-05-07T15:43:58;19.63;;;13.02;;
40781;SDS011;26493;51.938;7.626;2023-05-07T15:46:24;18.33;;;13.68;;
40781;SDS011;26493;51.938;7.626;2023-05-07T15:48:51;18.25;;;13.02;;
40781;SDS011;26493;51.938;7.626;2023-05-07T15:51:17;18.50;;;13.25;;
40781;SDS011;26493;51.938;7.626;2023-05-07T15:53:44;17.75;;;13.48;;
40781;SDS011;26493;51.938;7.626;2023-05-07T15:56:10;18.25;;;13.25;;
40781;SDS011;26493;51.938;7.626;2023-05-07T15:58:36;18.35;;;13.75;;